sensor_id;sensor_type;location;lat;lon;timestamp;pressure;altitude;pressure_sealevel;temperature;humidity
68628;BME280;55611;48.602;9.490;2023-06-14T00:01:40;96450;;;17.8;39
68628;BME280;55611;48.602;9.490;2023-06-14T00:04:11;96450;;;17.7;39.5
68628;BME280;55611;48.602;9.490;2023-06-14T00:06:42;96450;;;17.6;39.5
68628;BME280;55611;48.602;9.490;2023-06-14T00:09:12;96440;;;17.6;39.5
68628;BME280;55611;48.602;9.490;2023-06-14T00:11:43;96440;;;17.7;39.5
68628;BME280;55611;48.602;9.490;2023-06-14T00:14:14;96440;;;17.7;39.5
68628;BME280;55611;48.602;9.490;2023-06-14T00:19:15;96440;;;17.8;39.5
68628;BME280;55611;48.602;9.490;2023-06-14T00:21:46;96430;;;17.9;39.5
68628;BME280;55611;48.602;9.490;2023-06-14T00:24:17;96430;;;17.9;39.5
68628;BME280;55611;48.602;9.490;2023-06-14T00:26:47;96430;;;18;39.5
68628;BME280;55611;48.602;9.490;2023-06-14T00:29:18;96430;;;18;39.5
68628;BME280;55611;48.602;9.490;2023-06-14T00:31:49;96430;;;18;39.5
68628;BME280;55611;48.602;9.490;2023-06-14T00:34:20;96430;;;18;39.5
68628;BME280;55611;48.602;9.490;2023-06-14T00:36:51;96430;;;18;39.5
68628;BME280;55611;48.602;9.490;2023-06-14T00:39:21;96430;;;18;39.5
68628;BME280;55611;48.602;9.490;2023-06-14T00:41:52;96430;;;18;39.5
68628;BME280;55611;48.602;9.490;2023-06-14T00:44:23;96430;;;18;39.5
68628;BME280;55611;48.602;9.490;2023-06-14T00:46:54;96430;;;18;39.5
68628;BME280;55611;48.602;9.490;2023-06-14T00:49:24;96430;;;18.1;40
68628;BME280;55611;48.602;9.490;2023-06-14T00:51:55;96430;;;18.1;40
68628;BME280;55611;48.602;9.490;2023-06-14T00:54:26;96430;;;18;39.5
68628;BME280;55611;48.602;9.490;2023-06-14T00:56:57;96430;;;17.9;39.5
68628;BME280;55611;48.602;9.490;2023-06-14T00:59:28;96440;;;17.8;39.5
68628;BME280;55611;48.602;9.490;2023-06-14T01:01:58;96440;;;17.7;39.5
68628;BME280;55611;48.602;9.490;2023-06-14T01:04:29;96440;;;17.5;40
68628;BME280;55611;48.602;9.490;2023-06-14T01:07:07;96430;;;17.5;40
68628;BME280;55611;48.602;9.490;2023-06-14T01:09:37;96430;;;17.4;40
68628;BME280;55611;48.602;9.490;2023-06-14T01:14:32;96430;;;17.3;40
68628;BME280;55611;48.602;9.490;2023-06-14T01:17:03;96430;;;17.3;40
68628;BME280;55611;48.602;9.490;2023-06-14T01:19:34;96430;;;17.3;40
68628;BME280;55611;48.602;9.490;2023-06-14T01:22:05;96430;;;17.4;40.5
68628;BME280;55611;48.602;9.490;2023-06-14T01:24:35;96430;;;17.4;40.5
68628;BME280;55611;48.602;9.490;2023-06-14T01:27:06;96430;;;17.5;40
68628;BME280;55611;48.602;9.490;2023-06-14T01:29:37;96430;;;17.4;40
68628;BME280;55611;48.602;9.490;2023-06-14T01:32:08;96430;;;17.4;40
68628;BME280;55611;48.602;9.490;2023-06-14T01:34:38;96430;;;17.3;40
68628;BME280;55611;48.602;9.490;2023-06-14T01:37:10;96430;;;17.2;40
68628;BME280;55611;48.602;9.490;2023-06-14T01:39:40;96430;;;17.1;40.5
68628;BME280;55611;48.602;9.490;2023-06-14T01:42:11;96430;;;17;40.5
68628;BME280;55611;48.602;9.490;2023-06-14T01:44:42;96430;;;17;40.5
68628;BME280;55611;48.602;9.490;2023-06-14T01:47:12;96430;;;17;40.5
68628;BME280;55611;48.602;9.490;2023-06-14T01:52:14;96430;;;17;40.5
68628;BME280;55611;48.602;9.490;2023-06-14T01:54:45;96430;;;16.9;40.5
68628;BME280;55611;48.602;9.490;2023-06-14T01:57:15;96430;;;16.9;40.5
68628;BME280;55611;48.602;9.490;2023-06-14T01:59:46;96420;;;16.9;40.5
68628;BME280;55611;48.602;9.490;2023-06-14T02:02:17;96420;;;16.9;40.5
68628;BME280;55611;48.602;9.490;2023-06-14T02:04:48;96430;;;16.9;40.5
68628;BME280;55611;48.602;9.490;2023-06-14T02:07:18;96430;;;16.8;40.5
68628;BME280;55611;48.602;9.490;2023-06-14T02:09:49;96430;;;16.8;40.5
68628;BME280;55611;48.602;9.490;2023-06-14T02:12:20;96440;;;16.7;40.5
68628;BME280;55611;48.602;9.490;2023-06-14T02:14:51;96430;;;16.7;41
68628;BME280;55611;48.602;9.490;2023-06-14T02:17:22;96440;;;16.6;41
68628;BME280;55611;48.602;9.490;2023-06-14T02:19:52;96440;;;16.6;41
68628;BME280;55611;48.602;9.490;2023-06-14T02:22:23;96440;;;16.6;41
68628;BME280;55611;48.602;9.490;2023-06-14T02:24:54;96440;;;16.6;41
68628;BME280;55611;48.602;9.490;2023-06-14T02:27:25;96440;;;16.5;41
68628;BME280;55611;48.602;9.490;2023-06-14T02:29:55;96440;;;16.4;41
68628;BME280;55611;48.602;9.490;2023-06-14T02:32:26;96440;;;16.3;41
68628;BME280;55611;48.602;9.490;2023-06-14T02:34:57;96440;;;16.2;41
68628;BME280;55611;48.602;9.490;2023-06-14T02:37:28;96440;;;16.1;41
68628;BME280;55611;48.602;9.490;2023-06-14T02:39:59;96440;;;16.1;41
68628;BME280;55611;48.602;9.490;2023-06-14T02:42:29;96440;;;16;41
68628;BME280;55611;48.602;9.490;2023-06-14T02:47:31;96440;;;15.9;41.5
68628;BME280;55611;48.602;9.490;2023-06-14T02:50:02;96430;;;16;41.5
68628;BME280;55611;48.602;9.490;2023-06-14T02:52:33;96430;;;16;41.5
68628;BME280;55611;48.602;9.490;2023-06-14T02:55:03;96430;;;16.1;41.5
68628;BME280;55611;48.602;9.490;2023-06-14T02:57:34;96440;;;16;41.5
68628;BME280;55611;48.602;9.490;2023-06-14T03:00:05;96440;;;15.9;41.5
68628;BME280;55611;48.602;9.490;2023-06-14T03:02:36;96440;;;15.9;41.5
68628;BME280;55611;48.602;9.490;2023-06-14T03:05:06;96440;;;15.9;41.5
68628;BME280;55611;48.602;9.490;2023-06-14T03:07:37;96430;;;15.9;41.5
68628;BME280;55611;48.602;9.490;2023-06-14T03:10:08;96440;;;15.9;41.5
68628;BME280;55611;48.602;9.490;2023-06-14T03:12:39;96430;;;15.9;41.5
68628;BME280;55611;48.602;9.490;2023-06-14T03:15:09;96440;;;15.9;41.5
68628;BME280;55611;48.602;9.490;2023-06-14T03:17:40;96440;;;15.9;41.5
68628;BME280;55611;48.602;9.490;2023-06-14T03:20:11;96440;;;15.9;41.5
68628;BME280;55611;48.602;9.490;2023-06-14T03:22:42;96440;;;15.8;41.5
68628;BME280;55611;48.602;9.490;2023-06-14T03:25:13;96440;;;15.8;41.5
68628;BME280;55611;48.602;9.490;2023-06-14T03:27:43;96440;;;15.8;41.5
68628;BME280;55611;48.602;9.490;2023-06-14T03:30:14;96450;;;15.9;41.5
68628;BME280;55611;48.602;9.490;2023-06-14T03:32:45;96450;;;16;42
68628;BME280;55611;48.602;9.490;2023-06-14T03:35:16;96450;;;16;42
68628;BME280;55611;48.602;9.490;2023-06-14T03:37:47;96450;;;16.1;42
68628;BME280;55611;48.602;9.490;2023-06-14T03:40:18;96450;;;16.1;42
68628;BME280;55611;48.602;9.490;2023-06-14T03:42:48;96450;;;16.1;42
68628;BME280;55611;48.602;9.490;2023-06-14T03:45:19;96460;;;16.2;42
68628;BME280;55611;48.602;9.490;2023-06-14T03:47:49;96460;;;16.3;42
68628;BME280;55611;48.602;9.490;2023-06-14T03:50:20;96470;;;16.3;42
68628;BME280;55611;48.602;9.490;2023-06-14T03:52:51;96470;;;16.3;42
68628;BME280;55611;48.602;9.490;2023-06-14T03:55:22;96470;;;16.3;42
68628;BME280;55611;48.602;9.490;2023-06-14T03:57:53;96470;;;16.4;42
68628;BME280;55611;48.602;9.490;2023-06-14T04:00:23;96470;;;16.4;42
68628;BME280;55611;48.602;9.490;2023-06-14T04:02:54;96470;;;16.5;42
68628;BME280;55611;48.602;9.490;2023-06-14T04:05:25;96470;;;16.5;42
68628;BME280;55611;48.602;9.490;2023-06-14T04:07:56;96480;;;16.5;42
68628;BME280;55611;48.602;9.490;2023-06-14T04:10:26;96480;;;16.7;42
68628;BME280;55611;48.602;9.490;2023-06-14T04:12:57;96490;;;16.9;41.5
68628;BME280;55611;48.602;9.490;2023-06-14T04:15:28;96490;;;17.1;41.5
68628;BME280;55611;48.602;9.490;2023-06-14T04:17:59;96490;;;17.3;41.5
68628;BME280;55611;48.602;9.490;2023-06-14T04:20:30;96490;;;17.5;41.5
68628;BME280;55611;48.602;9.490;2023-06-14T04:23:16;96490;;;17.6;41.5
68628;BME280;55611;48.602;9.490;2023-06-14T04:25:31;96490;;;17.8;41.5
68628;BME280;55611;48.602;9.490;2023-06-14T04:28:02;96490;;;17.9;41.5
68628;BME280;55611;48.602;9.490;2023-06-14T04:30:33;96490;;;18.1;41
68628;BME280;55611;48.602;9.490;2023-06-14T04:33:04;96500;;;18.2;41
68628;BME280;55611;48.602;9.490;2023-06-14T04:35:34;96500;;;18.2;41
68628;BME280;55611;48.602;9.490;2023-06-14T04:38:05;96500;;;18.3;41
68628;BME280;55611;48.602;9.490;2023-06-14T04:40:36;96500;;;18.5;41
68628;BME280;55611;48.602;9.490;2023-06-14T04:43:06;96500;;;18.5;41
68628;BME280;55611;48.602;9.490;2023-06-14T04:45:37;96500;;;18.5;41
68628;BME280;55611;48.602;9.490;2023-06-14T04:48:08;96500;;;18.4;41
68628;BME280;55611;48.602;9.490;2023-06-14T04:50:39;96500;;;18.3;41
68628;BME280;55611;48.602;9.490;2023-06-14T04:53:10;96510;;;18.3;41
68628;BME280;55611;48.602;9.490;2023-06-14T04:55:40;96510;;;18.4;41.5
68628;BME280;55611;48.602;9.490;2023-06-14T04:58:11;96520;;;18.4;41.5
68628;BME280;55611;48.602;9.490;2023-06-14T05:00:42;96520;;;18.4;41.5
68628;BME280;55611;48.602;9.490;2023-06-14T05:03:13;96530;;;18.5;41.5
68628;BME280;55611;48.602;9.490;2023-06-14T05:05:43;96530;;;18.5;41.5
68628;BME280;55611;48.602;9.490;2023-06-14T05:08:14;96540;;;18.6;41.5
68628;BME280;55611;48.602;9.490;2023-06-14T05:10:45;96540;;;18.6;41.5
68628;BME280;55611;48.602;9.490;2023-06-14T05:13:16;96550;;;18.6;41.5
68628;BME280;55611;48.602;9.490;2023-06-14T05:15:47;96540;;;18.6;41.5
68628;BME280;55611;48.602;9.490;2023-06-14T05:18:17;96540;;;18.4;41.5
68628;BME280;55611;48.602;9.490;2023-06-14T05:20:48;96550;;;18.1;41.5
68628;BME280;55611;48.602;9.490;2023-06-14T05:23:19;96550;;;18;41.5
68628;BME280;55611;48.602;9.490;2023-06-14T05:25:50;96540;;;18.2;41.5
68628;BME280;55611;48.602;9.490;2023-06-14T05:28:20;96550;;;18.4;41.5
68628;BME280;55611;48.602;9.490;2023-06-14T05:30:51;96540;;;18.6;42
68628;BME280;55611;48.602;9.490;2023-06-14T05:33:22;96540;;;18.7;42
68628;BME280;55611;48.602;9.490;2023-06-14T05:35:53;96540;;;18.8;41.5
68628;BME280;55611;48.602;9.490;2023-06-14T05:38:24;96540;;;18.7;41.5
68628;BME280;55611;48.602;9.490;2023-06-14T05:40:54;96540;;;18.8;41.5
68628;BME280;55611;48.602;9.490;2023-06-14T05:43:25;96540;;;19.1;41.5
68628;BME280;55611;48.602;9.490;2023-06-14T05:45:56;96540;;;19.3;41.5
68628;BME280;55611;48.602;9.490;2023-06-14T05:48:27;96540;;;19.4;41.5
68628;BME280;55611;48.602;9.490;2023-06-14T05:50:58;96540;;;19.6;41.5
68628;BME280;55611;48.602;9.490;2023-06-14T05:53:28;96540;;;19.6;41.5
68628;BME280;55611;48.602;9.490;2023-06-14T05:55:59;96540;;;19.7;41.5
68628;BME280;55611;48.602;9.490;2023-06-14T05:58:30;96540;;;19.7;41.5
68628;BME280;55611;48.602;9.490;2023-06-14T06:01:00;96550;;;19.6;41.5
68628;BME280;55611;48.602;9.490;2023-06-14T06:03:31;96550;;;19.6;41.5
68628;BME280;55611;48.602;9.490;2023-06-14T06:06:02;96550;;;19.6;41.5
68628;BME280;55611;48.602;9.490;2023-06-14T06:08:33;96550;;;19.6;41.5
68628;BME280;55611;48.602;9.490;2023-06-14T06:11:04;96550;;;19.7;41.5
68628;BME280;55611;48.602;9.490;2023-06-14T06:13:34;96550;;;19.7;41.5
68628;BME280;55611;48.602;9.490;2023-06-14T06:16:05;96550;;;19.7;41.5
68628;BME280;55611;48.602;9.490;2023-06-14T06:18:36;96550;;;19.7;41.5
68628;BME280;55611;48.602;9.490;2023-06-14T06:21:07;96560;;;19.7;41
68628;BME280;55611;48.602;9.490;2023-06-14T06:23:37;96560;;;19.8;41
68628;BME280;55611;48.602;9.490;2023-06-14T06:26:08;96560;;;19.9;41
68628;BME280;55611;48.602;9.490;2023-06-14T06:28:39;96560;;;20;41
68628;BME280;55611;48.602;9.490;2023-06-14T06:31:10;96560;;;20;41
68628;BME280;55611;48.602;9.490;2023-06-14T06:33:41;96560;;;20;41
68628;BME280;55611;48.602;9.490;2023-06-14T06:36:11;96560;;;20.1;41
68628;BME280;55611;48.602;9.490;2023-06-14T06:38:42;96560;;;20.2;41
68628;BME280;55611;48.602;9.490;2023-06-14T06:41:13;96570;;;20.3;41
68628;BME280;55611;48.602;9.490;2023-06-14T06:43:44;96570;;;20.2;41
68628;BME280;55611;48.602;9.490;2023-06-14T06:46:14;96570;;;20.3;41
68628;BME280;55611;48.602;9.490;2023-06-14T06:48:45;96570;;;20.3;41
68628;BME280;55611;48.602;9.490;2023-06-14T06:51:16;96570;;;20.4;41
68628;BME280;55611;48.602;9.490;2023-06-14T06:53:52;96580;;;20.5;41
68628;BME280;55611;48.602;9.490;2023-06-14T06:56:18;96580;;;20.4;40.5
68628;BME280;55611;48.602;9.490;2023-06-14T06:58:49;96580;;;20.4;40.5
68628;BME280;55611;48.602;9.490;2023-06-14T07:01:19;96580;;;20.5;40.5
68628;BME280;55611;48.602;9.490;2023-06-14T07:03:50;96580;;;20.6;40.5
68628;BME280;55611;48.602;9.490;2023-06-14T07:06:21;96580;;;20.8;40.5
68628;BME280;55611;48.602;9.490;2023-06-14T07:08:51;96580;;;20.7;40.5
68628;BME280;55611;48.602;9.490;2023-06-14T07:11:22;96590;;;20.8;40.5
68628;BME280;55611;48.602;9.490;2023-06-14T07:13:53;96580;;;21;40.5
68628;BME280;55611;48.602;9.490;2023-06-14T07:16:24;96580;;;21.1;40.5
68628;BME280;55611;48.602;9.490;2023-06-14T07:18:55;96590;;;21.2;40.5
68628;BME280;55611;48.602;9.490;2023-06-14T07:21:25;96590;;;21.3;40.5
68628;BME280;55611;48.602;9.490;2023-06-14T07:23:56;96600;;;21.4;40.5
68628;BME280;55611;48.602;9.490;2023-06-14T07:26:27;96600;;;21.5;40.5
68628;BME280;55611;48.602;9.490;2023-06-14T07:31:28;96600;;;21.5;40
68628;BME280;55611;48.602;9.490;2023-06-14T07:33:59;96610;;;21.6;40.5
68628;BME280;55611;48.602;9.490;2023-06-14T07:36:30;96610;;;21.6;40.5
68628;BME280;55611;48.602;9.490;2023-06-14T07:39:01;96610;;;21.7;40
68628;BME280;55611;48.602;9.490;2023-06-14T07:41:32;96610;;;21.8;40
68628;BME280;55611;48.602;9.490;2023-06-14T07:44:02;96610;;;21.9;40
68628;BME280;55611;48.602;9.490;2023-06-14T07:46:33;96610;;;21.9;40
68628;BME280;55611;48.602;9.490;2023-06-14T07:49:04;96610;;;22;40
68628;BME280;55611;48.602;9.490;2023-06-14T07:51:35;96610;;;22.1;40
68628;BME280;55611;48.602;9.490;2023-06-14T07:54:05;96610;;;22.1;40
68628;BME280;55611;48.602;9.490;2023-06-14T07:56:36;96610;;;22.1;40
68628;BME280;55611;48.602;9.490;2023-06-14T07:59:07;96610;;;22.1;40
68628;BME280;55611;48.602;9.490;2023-06-14T08:01:38;96610;;;22.1;40
68628;BME280;55611;48.602;9.490;2023-06-14T08:04:08;96610;;;22.2;40
68628;BME280;55611;48.602;9.490;2023-06-14T08:06:39;96610;;;22.3;40
68628;BME280;55611;48.602;9.490;2023-06-14T08:11:41;96610;;;22.6;40
68628;BME280;55611;48.602;9.490;2023-06-14T08:14:12;96610;;;22.8;40
68628;BME280;55611;48.602;9.490;2023-06-14T08:16:42;96610;;;22.7;40
68628;BME280;55611;48.602;9.490;2023-06-14T08:19:13;96610;;;22.8;39.5
68628;BME280;55611;48.602;9.490;2023-06-14T08:21:44;96610;;;23;39.5
68628;BME280;55611;48.602;9.490;2023-06-14T08:24:15;96620;;;23;39.5
68628;BME280;55611;48.602;9.490;2023-06-14T08:26:45;96610;;;23.2;39.5
68628;BME280;55611;48.602;9.490;2023-06-14T08:29:16;96610;;;23.3;39.5
68628;BME280;55611;48.602;9.490;2023-06-14T08:31:47;96620;;;23.3;39.5
68628;BME280;55611;48.602;9.490;2023-06-14T08:34:18;96620;;;23.2;39.5
68628;BME280;55611;48.602;9.490;2023-06-14T08:36:50;96610;;;23.2;39.5
68628;BME280;55611;48.602;9.490;2023-06-14T08:39:19;96620;;;23.4;39.5
68628;BME280;55611;48.602;9.490;2023-06-14T08:41:50;96610;;;23.5;39.5
68628;BME280;55611;48.602;9.490;2023-06-14T08:44:21;96610;;;23.8;39.5
68628;BME280;55611;48.602;9.490;2023-06-14T08:46:52;96620;;;24;39.5
68628;BME280;55611;48.602;9.490;2023-06-14T08:49:22;96620;;;24;39
68628;BME280;55611;48.602;9.490;2023-06-14T08:51:56;96620;;;24.1;39
68628;BME280;55611;48.602;9.490;2023-06-14T08:54:25;96620;;;24.2;39
68628;BME280;55611;48.602;9.490;2023-06-14T08:56:55;96630;;;24;39
68628;BME280;55611;48.602;9.490;2023-06-14T08:59:26;96630;;;24.1;39
68628;BME280;55611;48.602;9.490;2023-06-14T09:01:56;96620;;;24;39
68628;BME280;55611;48.602;9.490;2023-06-14T09:04:27;96630;;;24;39
68628;BME280;55611;48.602;9.490;2023-06-14T09:06:58;96620;;;24.1;39
68628;BME280;55611;48.602;9.490;2023-06-14T09:09:29;96620;;;24;39
68628;BME280;55611;48.602;9.490;2023-06-14T09:11:59;96620;;;24.1;39
68628;BME280;55611;48.602;9.490;2023-06-14T09:14:30;96620;;;24.2;39
68628;BME280;55611;48.602;9.490;2023-06-14T09:17:01;96620;;;24.2;39
68628;BME280;55611;48.602;9.490;2023-06-14T09:19:32;96620;;;24.3;39
68628;BME280;55611;48.602;9.490;2023-06-14T09:22:03;96630;;;24.4;39
68628;BME280;55611;48.602;9.490;2023-06-14T09:24:33;96620;;;24.4;39
68628;BME280;55611;48.602;9.490;2023-06-14T09:27:04;96620;;;24.5;39
68628;BME280;55611;48.602;9.490;2023-06-14T09:29:35;96630;;;24.6;39
68628;BME280;55611;48.602;9.490;2023-06-14T09:32:06;96630;;;24.6;39
68628;BME280;55611;48.602;9.490;2023-06-14T09:34:36;96630;;;24.7;38.5
68628;BME280;55611;48.602;9.490;2023-06-14T09:37:07;96620;;;24.7;38.5
68628;BME280;55611;48.602;9.490;2023-06-14T09:39:53;96620;;;24.8;38.5
68628;BME280;55611;48.602;9.490;2023-06-14T09:42:15;96630;;;24.9;38.5
68628;BME280;55611;48.602;9.490;2023-06-14T09:44:39;96630;;;25;38.5
68628;BME280;55611;48.602;9.490;2023-06-14T09:47:10;96620;;;25;38.5
68628;BME280;55611;48.602;9.490;2023-06-14T09:49:42;96630;;;25.1;38.5
68628;BME280;55611;48.602;9.490;2023-06-14T09:52:16;96630;;;25.2;38.5
68628;BME280;55611;48.602;9.490;2023-06-14T09:54:43;96630;;;25.3;38.5
68628;BME280;55611;48.602;9.490;2023-06-14T09:57:14;96630;;;25.3;38.5
68628;BME280;55611;48.602;9.490;2023-06-14T09:59:45;96620;;;25.4;38
68628;BME280;55611;48.602;9.490;2023-06-14T10:02:25;96630;;;25.5;38
68628;BME280;55611;48.602;9.490;2023-06-14T10:04:46;96620;;;25.5;38
68628;BME280;55611;48.602;9.490;2023-06-14T10:07:18;96620;;;25.4;38.5
68628;BME280;55611;48.602;9.490;2023-06-14T10:09:47;96620;;;25.5;38.5
68628;BME280;55611;48.602;9.490;2023-06-14T10:12:18;96620;;;25.6;38
68628;BME280;55611;48.602;9.490;2023-06-14T10:14:49;96620;;;25.6;38
68628;BME280;55611;48.602;9.490;2023-06-14T10:17:21;96620;;;25.5;38
68628;BME280;55611;48.602;9.490;2023-06-14T10:19:54;96620;;;25.4;38
68628;BME280;55611;48.602;9.490;2023-06-14T10:22:23;96620;;;25.4;38.5
68628;BME280;55611;48.602;9.490;2023-06-14T10:24:52;96610;;;25.6;38
68628;BME280;55611;48.602;9.490;2023-06-14T10:27:23;96610;;;25.6;38
68628;BME280;55611;48.602;9.490;2023-06-14T10:32:25;96620;;;25.7;38
68628;BME280;55611;48.602;9.490;2023-06-14T10:34:56;96610;;;25.7;38
68628;BME280;55611;48.602;9.490;2023-06-14T10:37:26;96610;;;25.8;38
68628;BME280;55611;48.602;9.490;2023-06-14T10:39:56;96610;;;25.9;38
68628;BME280;55611;48.602;9.490;2023-06-14T10:42:28;96610;;;25.8;38
68628;BME280;55611;48.602;9.490;2023-06-14T10:44:58;96610;;;25.9;37.5
68628;BME280;55611;48.602;9.490;2023-06-14T10:47:32;96610;;;25.8;38
68628;BME280;55611;48.602;9.490;2023-06-14T10:50:04;96610;;;25.9;38
68628;BME280;55611;48.602;9.490;2023-06-14T10:52:32;96610;;;25.8;37.5
68628;BME280;55611;48.602;9.490;2023-06-14T10:55:03;96610;;;25.8;37.5
68628;BME280;55611;48.602;9.490;2023-06-14T10:57:33;96610;;;25.8;38
68628;BME280;55611;48.602;9.490;2023-06-14T11:00:03;96610;;;26;38
68628;BME280;55611;48.602;9.490;2023-06-14T11:05:04;96600;;;26.2;37.5
68628;BME280;55611;48.602;9.490;2023-06-14T11:08:26;96600;;;26.2;37.5
68628;BME280;55611;48.602;9.490;2023-06-14T11:10:26;96600;;;26.1;37.5
68628;BME280;55611;48.602;9.490;2023-06-14T11:12:37;96600;;;26.1;37.5
68628;BME280;55611;48.602;9.490;2023-06-14T11:15:07;96600;;;26;37.5
68628;BME280;55611;48.602;9.490;2023-06-14T11:17:38;96600;;;25.9;37.5
68628;BME280;55611;48.602;9.490;2023-06-14T11:20:09;96600;;;26;37.5
68628;BME280;55611;48.602;9.490;2023-06-14T11:22:41;96600;;;26.2;37.5
68628;BME280;55611;48.602;9.490;2023-06-14T11:25:11;96600;;;26.2;37.5
68628;BME280;55611;48.602;9.490;2023-06-14T11:27:41;96610;;;26.1;37.5
68628;BME280;55611;48.602;9.490;2023-06-14T11:30:12;96600;;;26;37.5
68628;BME280;55611;48.602;9.490;2023-06-14T11:32:45;96600;;;26;37.5
68628;BME280;55611;48.602;9.490;2023-06-14T11:35:14;96600;;;26.2;37.5
68628;BME280;55611;48.602;9.490;2023-06-14T11:37:44;96600;;;26.2;37.5
68628;BME280;55611;48.602;9.490;2023-06-14T11:40:15;96600;;;26.2;37.5
68628;BME280;55611;48.602;9.490;2023-06-14T11:42:46;96600;;;26.2;37.5
68628;BME280;55611;48.602;9.490;2023-06-14T11:45:18;96600;;;26.2;37.5
68628;BME280;55611;48.602;9.490;2023-06-14T11:47:47;96600;;;26.4;37.5
68628;BME280;55611;48.602;9.490;2023-06-14T11:50:18;96590;;;26.6;37
68628;BME280;55611;48.602;9.490;2023-06-14T11:52:53;96600;;;26.8;37
68628;BME280;55611;48.602;9.490;2023-06-14T11:55:20;96590;;;26.6;37
68628;BME280;55611;48.602;9.490;2023-06-14T11:57:51;96590;;;26.7;37
68628;BME280;55611;48.602;9.490;2023-06-14T12:00:24;96590;;;26.8;37
68628;BME280;55611;48.602;9.490;2023-06-14T12:02:53;96590;;;26.5;37
68628;BME280;55611;48.602;9.490;2023-06-14T12:05:23;96590;;;26.4;37
68628;BME280;55611;48.602;9.490;2023-06-14T12:07:57;96590;;;26.5;37
68628;BME280;55611;48.602;9.490;2023-06-14T12:10:24;96600;;;26.5;37
68628;BME280;55611;48.602;9.490;2023-06-14T12:12:57;96600;;;26.4;37
68628;BME280;55611;48.602;9.490;2023-06-14T12:15:29;96590;;;26.5;37
68628;BME280;55611;48.602;9.490;2023-06-14T12:17:57;96580;;;26.6;37
68628;BME280;55611;48.602;9.490;2023-06-14T12:20:29;96590;;;26.7;37
68628;BME280;55611;48.602;9.490;2023-06-14T12:22:59;96590;;;26.7;37
68628;BME280;55611;48.602;9.490;2023-06-14T12:25:31;96580;;;26.7;37
68628;BME280;55611;48.602;9.490;2023-06-14T12:28:04;96580;;;27;36.5
68628;BME280;55611;48.602;9.490;2023-06-14T12:30:31;96580;;;27.2;36.5
68628;BME280;55611;48.602;9.490;2023-06-14T12:33:02;96580;;;27.3;36.5
68628;BME280;55611;48.602;9.490;2023-06-14T12:35:32;96580;;;27.2;36.5
68628;BME280;55611;48.602;9.490;2023-06-14T12:38:03;96580;;;27.1;36.5
68628;BME280;55611;48.602;9.490;2023-06-14T12:40:34;96580;;;27;36.5
68628;BME280;55611;48.602;9.490;2023-06-14T12:43:04;96580;;;26.8;37
68628;BME280;55611;48.602;9.490;2023-06-14T12:45:35;96580;;;26.9;37
68628;BME280;55611;48.602;9.490;2023-06-14T12:48:06;96580;;;27.1;37
68628;BME280;55611;48.602;9.490;2023-06-14T12:50:37;96580;;;27.2;37
68628;BME280;55611;48.602;9.490;2023-06-14T12:53:08;96580;;;27.1;37
68628;BME280;55611;48.602;9.490;2023-06-14T12:55:38;96580;;;27.2;37
68628;BME280;55611;48.602;9.490;2023-06-14T12:58:09;96580;;;27.1;36.5
68628;BME280;55611;48.602;9.490;2023-06-14T13:00:40;96590;;;27;36.5
68628;BME280;55611;48.602;9.490;2023-06-14T13:03:11;96590;;;26.9;36.5
68628;BME280;55611;48.602;9.490;2023-06-14T13:05:41;96590;;;26.8;36.5
68628;BME280;55611;48.602;9.490;2023-06-14T13:08:12;96590;;;26.7;36.5
68628;BME280;55611;48.602;9.490;2023-06-14T13:10:43;96600;;;26.7;36.5
68628;BME280;55611;48.602;9.490;2023-06-14T13:13:14;96590;;;26.5;37
68628;BME280;55611;48.602;9.490;2023-06-14T13:15:44;96600;;;26.6;37
68628;BME280;55611;48.602;9.490;2023-06-14T13:18:16;96590;;;26.7;37
68628;BME280;55611;48.602;9.490;2023-06-14T13:20:46;96590;;;26.8;36.5
68628;BME280;55611;48.602;9.490;2023-06-14T13:23:17;96590;;;26.7;36.5
68628;BME280;55611;48.602;9.490;2023-06-14T13:25:48;96590;;;26.8;36.5
68628;BME280;55611;48.602;9.490;2023-06-14T13:28:18;96580;;;27;36.5
68628;BME280;55611;48.602;9.490;2023-06-14T13:30:49;96580;;;27.1;36.5
68628;BME280;55611;48.602;9.490;2023-06-14T13:33:20;96580;;;27.2;36.5
68628;BME280;55611;48.602;9.490;2023-06-14T13:35:51;96580;;;27.2;36.5
68628;BME280;55611;48.602;9.490;2023-06-14T13:38:21;96580;;;27.4;36.5
68628;BME280;55611;48.602;9.490;2023-06-14T13:40:52;96580;;;27.4;36.5
68628;BME280;55611;48.602;9.490;2023-06-14T13:43:23;96580;;;27.3;36.5
68628;BME280;55611;48.602;9.490;2023-06-14T13:45:54;96580;;;27.4;36.5
68628;BME280;55611;48.602;9.490;2023-06-14T13:48:25;96580;;;27.4;36.5
68628;BME280;55611;48.602;9.490;2023-06-14T13:50:55;96580;;;27.3;36
68628;BME280;55611;48.602;9.490;2023-06-14T13:53:26;96580;;;27.2;36
68628;BME280;55611;48.602;9.490;2023-06-14T13:55:57;96570;;;27.1;36
68628;BME280;55611;48.602;9.490;2023-06-14T13:58:28;96570;;;27.1;36
68628;BME280;55611;48.602;9.490;2023-06-14T14:00:58;96570;;;27.1;36.5
68628;BME280;55611;48.602;9.490;2023-06-14T14:03:29;96570;;;27.1;36.5
68628;BME280;55611;48.602;9.490;2023-06-14T14:06:01;96560;;;27.2;36
68628;BME280;55611;48.602;9.490;2023-06-14T14:08:31;96560;;;27.3;36
68628;BME280;55611;48.602;9.490;2023-06-14T14:11:02;96560;;;27.3;36
68628;BME280;55611;48.602;9.490;2023-06-14T14:13:32;96560;;;27.3;36.5
68628;BME280;55611;48.602;9.490;2023-06-14T14:16:03;96570;;;27.3;36.5
68628;BME280;55611;48.602;9.490;2023-06-14T14:18:34;96570;;;27.3;36.5
68628;BME280;55611;48.602;9.490;2023-06-14T14:21:05;96570;;;27;36.5
68628;BME280;55611;48.602;9.490;2023-06-14T14:23:35;96570;;;26.8;36.5
68628;BME280;55611;48.602;9.490;2023-06-14T14:26:06;96570;;;26.9;36.5
68628;BME280;55611;48.602;9.490;2023-06-14T14:28:37;96570;;;26.8;36.5
68628;BME280;55611;48.602;9.490;2023-06-14T14:31:08;96570;;;26.8;36.5
68628;BME280;55611;48.602;9.490;2023-06-14T14:33:38;96570;;;26.8;36.5
68628;BME280;55611;48.602;9.490;2023-06-14T14:36:09;96570;;;27;36.5
68628;BME280;55611;48.602;9.490;2023-06-14T14:38:40;96570;;;27.3;36.5
68628;BME280;55611;48.602;9.490;2023-06-14T14:41:11;96570;;;27.4;36.5
68628;BME280;55611;48.602;9.490;2023-06-14T14:43:42;96580;;;27.2;36
68628;BME280;55611;48.602;9.490;2023-06-14T14:46:12;96570;;;27.1;36
68628;BME280;55611;48.602;9.490;2023-06-14T14:48:43;96580;;;26.9;36
68628;BME280;55611;48.602;9.490;2023-06-14T14:51:14;96580;;;26.9;36